Time;durP1;ratioP1;P1;durP2;ratioP2;P2;SDS_P1;SDS_P2;PMS_P1;PMS_P2;Temp;Humidity;BMP_temperature;BMP_pressure;BME280_temperature;BME280_humidity;BME280_pressure;Samples;Min_cycle;Max_cycle;Signal;HPM_P1;HPM_P2
2022/03/15 00:00:33;;;;;;;;;;;;;;;;;;6244830;22;20002;-89
2022/03/15 00:03:00;;;;;;;;;;;;;;;;;;6244209;22;19919;-89
2022/03/15 00:05:26;;;;;;;;;;;;;;;;;;6219436;22;19926;-88
2022/03/15 00:07:53;;;;;;;;;;;;;;;;;;6244791;22;19926;-88
2022/03/15 00:10:19;;;;;;;;;;;;;;;;;;6243464;22;20012;-89
2022/03/15 00:12:56;;;;;;;;;;;;;;;;;;6270186;22;19926;-89
2022/03/15 00:15:24;;;;;;;;;;;;;;;;;;6243210;22;19995;-89
2022/03/15 00:17:54;;;;;;;;;;;;;;;;;;6243782;22;20205;-89
2022/03/15 00:20:23;;;;;;;;;;;;;;;;;;6218027;22;19923;-89
2022/03/15 00:22:51;;;;;;;;;;;;;;;;;;6243837;22;19919;-89
2022/03/15 00:25:20;;;;;;;;;;;;;;;;;;6244592;22;20014;-89
2022/03/15 00:27:49;;;;;;;;;;;;;;;;;;6243757;22;19915;-89
2022/03/15 00:30:40;;;;;;;;;;;;;;;;;;6177006;23;20019;-89
2022/03/15 00:33:19;;;;;;;;;;;;;;;;;;6171725;23;19943;-89
2022/03/15 00:35:47;;;;;;;;;;;;;;;;;;6152181;23;19963;-89
2022/03/15 00:38:15;;;;;;;;;;;;;;;;;;6152357;23;19991;-89
2022/03/15 00:40:43;;;;;;;;;;;;;;;;;;6150202;23;19936;-89
2022/03/15 00:43:10;;;;;;;;;;;;;;;;;;6152340;23;19920;-89
2022/03/15 00:45:47;;;;;;;;;;;;;;;;;;6153836;23;19924;-90
2022/03/15 00:48:14;;;;;;;;;;;;;;;;;;6149141;23;20281;-89
2022/03/15 00:50:41;;;;;;;;;;;;;;;;;;6149135;23;20011;-90
2022/03/15 00:53:15;;;;;;;;;;;;;;;;;;6151176;23;19926;-89
2022/03/15 00:55:41;;;;;;;;;;;;;;;;;;6152158;23;20296;-89
2022/03/15 00:58:11;;;;;;;;;;;;;;;;;;6177270;23;20304;-90
2022/03/15 01:00:58;;;;;;;;;;;;;;;;;;6138947;23;19919;-90
2022/03/15 01:03:25;;;;;;;;;;;;;;;;;;6240082;23;20512;-90
2022/03/15 01:05:53;;;;;;;;;;;;;;;;;;6214694;23;19919;-89
2022/03/15 01:08:21;;;;;;;;;;;;;;;;;;6213944;23;20419;-89
2022/03/15 01:11:03;;;;;;;;;;;;;;;;;;6237394;23;20256;-89
2022/03/15 01:13:30;;;;;;;;;;;;;;;;;;6238478;23;19924;-89
2022/03/15 01:15:57;;;;;;;;;;;;;;;;;;6214136;23;19943;-89
2022/03/15 01:18:24;;;;;;;;;;;;;;;;;;6212992;23;19922;-89
2022/03/15 01:20:53;;;;;;;;;;;;;;;;;;6238338;23;19939;-89
2022/03/15 01:23:21;;;;;;;;;;;;;;;;;;6213860;23;19919;-89
2022/03/15 01:25:49;;;;;;;;;;;;;;;;;;6236704;23;19920;-89
2022/03/15 01:28:36;;;;;;;;;;;;;;;;;;6184762;23;19987;-89
2022/03/15 01:31:23;;;;;;;;;;;;;;;;;;6154797;23;19927;-89
2022/03/15 01:33:53;;;;;;;;;;;;;;;;;;6155274;23;19915;-89
2022/03/15 01:36:20;;;;;;;;;;;;;;;;;;6153646;23;19921;-89
2022/03/15 01:38:48;;;;;;;;;;;;;;;;;;6130065;23;19928;-90
2022/03/15 01:41:15;;;;;;;;;;;;;;;;;;6126944;23;19925;-89
2022/03/15 01:43:42;;;;;;;;;;;;;;;;;;6149921;23;19942;-90
2022/03/15 01:46:10;;;;;;;;;;;;;;;;;;6151552;23;20037;-89
2022/03/15 01:48:49;;;;;;;;;;;;;;;;;;6130169;23;19917;-88
2022/03/15 01:51:15;;;;;;;;;;;;;;;;;;6126934;23;20480;-89
2022/03/15 01:53:44;;;;;;;;;;;;;;;;;;6151665;23;20357;-89
2022/03/15 01:56:11;;;;;;;;;;;;;;;;;;6128010;23;19920;-89
2022/03/15 01:58:38;;;;;;;;;;;;;;;;;;6124706;23;19955;-89
2022/03/15 02:01:05;;;;;;;;;;;;;;;;;;6151317;23;19921;-89
2022/03/15 02:03:33;;;;;;;;;;;;;;;;;;6150129;23;20043;-89
2022/03/15 02:06:15;;;;;;;;;;;;;;;;;;6175099;23;19926;-89
2022/03/15 02:08:42;;;;;;;;;;;;;;;;;;6176113;23;19938;-90
2022/03/15 02:11:10;;;;;;;;;;;;;;;;;;6151179;23;19970;-90
2022/03/15 02:13:37;;;;;;;;;;;;;;;;;;6183061;23;19923;-90
2022/03/15 02:16:04;;;;;;;;;;;;;;;;;;6180630;23;20042;-89
2022/03/15 02:18:49;;;;;;;;;;;;;;;;;;6184787;23;19919;-89
2022/03/15 02:21:17;;;;;;;;;;;;;;;;;;6199990;22;19973;-89
2022/03/15 02:23:47;;;;;;;;;;;;;;;;;;6270438;22;19915;-89
2022/03/15 02:26:16;;;;;;;;;;;;;;;;;;6268490;22;19926;-89
2022/03/15 02:28:43;;;;;;;;;;;;;;;;;;6242077;22;19915;-89
2022/03/15 02:31:10;;;;;;;;;;;;;;;;;;6242576;22;19925;-89
2022/03/15 02:33:37;;;;;;;;;;;;;;;;;;6242407;22;20306;-89
2022/03/15 02:36:04;;;;;;;;;;;;;;;;;;6217554;22;19965;-89
2022/03/15 02:38:31;;;;;;;;;;;;;;;;;;6217149;22;19977;-89
2022/03/15 02:40:58;;;;;;;;;;;;;;;;;;6242511;22;19942;-89
2022/03/15 02:43:26;;;;;;;;;;;;;;;;;;6241789;22;19926;-89
2022/03/15 02:45:53;;;;;;;;;;;;;;;;;;6216005;22;19923;-89
2022/03/15 02:48:20;;;;;;;;;;;;;;;;;;6217785;22;19984;-89
2022/03/15 02:50:47;;;;;;;;;;;;;;;;;;6216861;22;19919;-89
2022/03/15 02:53:16;;;;;;;;;;;;;;;;;;6241797;22;19915;-89
2022/03/15 02:55:43;;;;;;;;;;;;;;;;;;6214270;22;19915;-89
2022/03/15 02:58:14;;;;;;;;;;;;;;;;;;6269468;22;20561;-89
2022/03/15 03:00:41;;;;;;;;;;;;;;;;;;6268455;22;19924;-89
2022/03/15 03:03:09;;;;;;;;;;;;;;;;;;6242565;22;19919;-90
2022/03/15 03:05:36;;;;;;;;;;;;;;;;;;6241919;22;19923;-89
2022/03/15 03:08:07;;;;;;;;;;;;;;;;;;6216954;22;19919;-90
2022/03/15 03:10:37;;;;;;;;;;;;;;;;;;6244180;22;20324;-89
2022/03/15 03:13:04;;;;;;;;;;;;;;;;;;6244349;22;19916;-89
2022/03/15 03:15:32;;;;;;;;;;;;;;;;;;6272093;22;20260;-89
2022/03/15 03:17:59;;;;;;;;;;;;;;;;;;6246242;22;19968;-90
2022/03/15 03:20:40;;;;;;;;;;;;;;;;;;6210419;23;19923;-89
2022/03/15 03:23:07;;;;;;;;;;;;;;;;;;6160287;23;20348;-89
2022/03/15 03:25:36;;;;;;;;;;;;;;;;;;6156359;23;19986;-89
2022/03/15 03:28:05;;;;;;;;;;;;;;;;;;6180333;23;19927;-89
2022/03/15 03:30:32;;;;;;;;;;;;;;;;;;6179282;23;19920;-90
2022/03/15 03:32:59;;;;;;;;;;;;;;;;;;6154996;23;19919;-90
2022/03/15 03:35:27;;;;;;;;;;;;;;;;;;6155665;23;19924;-90
2022/03/15 03:37:53;;;;;;;;;;;;;;;;;;6156150;23;19975;-90
2022/03/15 03:40:21;;;;;;;;;;;;;;;;;;6179812;23;19924;-90
2022/03/15 03:42:47;;;;;;;;;;;;;;;;;;6156096;23;19920;-90
2022/03/15 03:45:14;;;;;;;;;;;;;;;;;;6155932;23;19927;-90
2022/03/15 03:47:42;;;;;;;;;;;;;;;;;;6156741;23;19919;-90
2022/03/15 03:50:12;;;;;;;;;;;;;;;;;;6178688;23;19926;-90
2022/03/15 03:52:39;;;;;;;;;;;;;;;;;;6211519;22;19915;-89
2022/03/15 03:55:07;;;;;;;;;;;;;;;;;;6241255;22;20022;-90
2022/03/15 03:57:35;;;;;;;;;;;;;;;;;;6241856;22;19915;-90
2022/03/15 04:00:00;;;;;;;;;;;;;;;;;;6216924;22;19930;-90
2022/03/15 04:02:28;;;;;;;;;;;;;;;;;;6216677;22;19934;-90
2022/03/15 04:04:54;;;;;;;;;;;;;;;;;;6218173;22;19915;-90
2022/03/15 04:07:22;;;;;;;;;;;;;;;;;;6243257;22;19919;-90
2022/03/15 04:10:10;;;;;;;;;;;;;;;;;;6179469;23;19916;-90
2022/03/15 04:12:37;;;;;;;;;;;;;;;;;;6154303;23;20075;-91
2022/03/15 04:15:03;;;;;;;;;;;;;;;;;;6178460;23;20336;-90
2022/03/15 04:17:31;;;;;;;;;;;;;;;;;;6156070;23;19928;-91
2022/03/15 04:19:58;;;;;;;;;;;;;;;;;;6155578;23;19924;-90
2022/03/15 04:22:40;;;;;;;;;;;;;;;;;;6205519;23;19920;-89
2022/03/15 04:25:08;;;;;;;;;;;;;;;;;;6155446;23;19927;-90
2022/03/15 04:27:35;;;;;;;;;;;;;;;;;;6157033;23;19915;-90
2022/03/15 04:30:02;;;;;;;;;;;;;;;;;;6156904;23;19922;-90
2022/03/15 04:32:28;;;;;;;;;;;;;;;;;;6180038;23;19951;-89
2022/03/15 04:34:54;;;;;;;;;;;;;;;;;;6156363;23;19915;-89
2022/03/15 04:37:23;;;;;;;;;;;;;;;;;;6181926;23;19995;-90
2022/03/15 04:39:53;;;;;;;;;;;;;;;;;;6181125;23;19939;-87
2022/03/15 04:42:19;;;;;;;;;;;;;;;;;;6204542;23;19920;-87
2022/03/15 04:45:08;;;;;;;;;;;;;;;;;;6203453;23;19999;-87
2022/03/15 04:47:35;;;;;;;;;;;;;;;;;;6179041;23;20003;-86
2022/03/15 04:50:03;;;;;;;;;;;;;;;;;;6156898;23;19999;-87
2022/03/15 04:52:30;;;;;;;;;;;;;;;;;;6182418;23;19958;-87
2022/03/15 04:54:57;;;;;;;;;;;;;;;;;;6236744;22;19934;-87
2022/03/15 04:57:23;;;;;;;;;;;;;;;;;;6244938;22;19942;-87
2022/03/15 04:59:51;;;;;;;;;;;;;;;;;;6244669;22;20332;-87
2022/03/15 05:02:18;;;;;;;;;;;;;;;;;;6244447;22;19985;-87
2022/03/15 05:04:45;;;;;;;;;;;;;;;;;;6244350;22;20346;-87
2022/03/15 05:07:15;;;;;;;;;;;;;;;;;;6271943;22;19968;-86
2022/03/15 05:11:06;;;;;;;;;;;;;;;;;;6244525;22;19958;-87
2022/03/15 05:12:50;;;;;;;;;;;;;;;;;;6272110;22;20382;-87
2022/03/15 05:15:17;;;;;;;;;;;;;;;;;;6243678;22;19957;-87
2022/03/15 05:17:45;;;;;;;;;;;;;;;;;;6242653;22;19916;-87
2022/03/15 05:20:14;;;;;;;;;;;;;;;;;;6240049;22;20010;-87
2022/03/15 05:22:45;;;;;;;;;;;;;;;;;;6241348;22;19947;-87
2022/03/15 05:25:27;;;;;;;;;;;;;;;;;;6245400;22;19954;-86
2022/03/15 05:27:54;;;;;;;;;;;;;;;;;;6219705;22;20355;-87
2022/03/15 05:30:22;;;;;;;;;;;;;;;;;;6244232;22;20334;-87
2022/03/15 05:33:04;;;;;;;;;;;;;;;;;;6244736;22;19922;-87
2022/03/15 05:35:30;;;;;;;;;;;;;;;;;;6240782;22;19919;-85
2022/03/15 05:37:57;;;;;;;;;;;;;;;;;;6241183;22;19986;-87
2022/03/15 05:40:25;;;;;;;;;;;;;;;;;;6216374;22;19997;-87
2022/03/15 05:42:52;;;;;;;;;;;;;;;;;;6216366;22;19919;-87
2022/03/15 05:45:18;;;;;;;;;;;;;;;;;;6215388;22;19915;-86
2022/03/15 05:47:50;;;;;;;;;;;;;;;;;;6265481;22;19939;-86
2022/03/15 05:50:17;;;;;;;;;;;;;;;;;;6238515;22;19984;-88
2022/03/15 05:52:45;;;;;;;;;;;;;;;;;;6217864;22;19924;-86
2022/03/15 05:55:14;;;;;;;;;;;;;;;;;;6268356;22;19919;-86
2022/03/15 05:57:47;;;;;;;;;;;;;;;;;;6241349;22;19973;-86
2022/03/15 06:00:15;;;;;;;;;;;;;;;;;;6239845;22;19999;-86
2022/03/15 06:02:44;;;;;;;;;;;;;;;;;;6268666;22;19926;-87
2022/03/15 06:05:24;;;;;;;;;;;;;;;;;;6266751;22;20275;-84
2022/03/15 06:07:59;;;;;;;;;;;;;;;;;;6238872;22;20006;-86
2022/03/15 06:10:27;;;;;;;;;;;;;;;;;;6218103;22;19958;-86
2022/03/15 06:12:55;;;;;;;;;;;;;;;;;;6243074;22;19919;-86
2022/03/15 06:15:37;;;;;;;;;;;;;;;;;;6271280;22;19990;-86
2022/03/15 06:18:05;;;;;;;;;;;;;;;;;;6235603;22;20795;-86
2022/03/15 06:20:41;;;;;;;;;;;;;;;;;;6270721;22;19963;-85
2022/03/15 06:23:09;;;;;;;;;;;;;;;;;;6244075;22;19923;-86
2022/03/15 06:25:36;;;;;;;;;;;;;;;;;;6245956;22;19919;-86
2022/03/15 06:28:03;;;;;;;;;;;;;;;;;;6246043;22;19915;-86
2022/03/15 06:30:30;;;;;;;;;;;;;;;;;;6245675;22;19919;-87
2022/03/15 06:32:59;;;;;;;;;;;;;;;;;;6220205;22;20121;-87
2022/03/15 06:35:29;;;;;;;;;;;;;;;;;;6271864;22;19915;-86
2022/03/15 06:40:46;;;;;;;;;;;;;;;;;;6152614;23;19951;-87
2022/03/15 06:43:22;;;;;;;;;;;;;;;;;;6153571;23;19920;-87
2022/03/15 06:49:13;;;;;;;;;;;;;;;;;;6092208;23;19921;-87
2022/03/15 06:51:49;;;;;;;;;;;;;;;;;;6116005;23;19927;-87
2022/03/15 06:54:15;;;;;;;;;;;;;;;;;;6091759;23;20033;-87
2022/03/15 06:56:41;;;;;;;;;;;;;;;;;;6095239;23;19924;-87
2022/03/15 06:59:09;;;;;;;;;;;;;;;;;;6093337;23;19917;-87
2022/03/15 07:01:36;;;;;;;;;;;;;;;;;;6095282;23;19966;-87
2022/03/15 07:04:02;;;;;;;;;;;;;;;;;;6094203;23;19931;-87
2022/03/15 07:06:29;;;;;;;;;;;;;;;;;;6095252;23;19931;-87
2022/03/15 07:08:55;;;;;;;;;;;;;;;;;;6097382;23;19921;-87
2022/03/15 07:11:21;;;;;;;;;;;;;;;;;;6096468;23;19917;-87
2022/03/15 07:13:48;;;;;;;;;;;;;;;;;;6096336;23;20357;-87
2022/03/15 07:16:15;;;;;;;;;;;;;;;;;;6094022;23;19968;-87
2022/03/15 07:18:41;;;;;;;;;;;;;;;;;;6121243;23;19917;-87
2022/03/15 07:21:09;;;;;;;;;;;;;;;;;;6149104;23;20253;-87
2022/03/15 07:23:36;;;;;;;;;;;;;;;;;;6150175;23;20265;-87
2022/03/15 07:26:04;;;;;;;;;;;;;;;;;;6124939;23;19928;-87
2022/03/15 07:28:45;;;;;;;;;;;;;;;;;;6091729;23;19929;-86
2022/03/15 07:31:11;;;;;;;;;;;;;;;;;;6090915;23;20287;-86
2022/03/15 07:33:38;;;;;;;;;;;;;;;;;;6091323;23;19920;-87
2022/03/15 07:36:05;;;;;;;;;;;;;;;;;;6091631;23;19981;-87
2022/03/15 07:38:32;;;;;;;;;;;;;;;;;;6113349;23;20420;-87
2022/03/15 07:41:00;;;;;;;;;;;;;;;;;;6154743;23;19924;-87
2022/03/15 07:43:27;;;;;;;;;;;;;;;;;;6154748;23;19922;-87
2022/03/15 07:45:55;;;;;;;;;;;;;;;;;;6130395;23;19920;-87
2022/03/15 07:48:22;;;;;;;;;;;;;;;;;;6154169;23;20295;-86
2022/03/15 07:50:52;;;;;;;;;;;;;;;;;;6130480;23;20241;-87
2022/03/15 07:53:19;;;;;;;;;;;;;;;;;;6153857;23;19971;-87
2022/03/15 07:55:46;;;;;;;;;;;;;;;;;;6155382;23;19920;-87
2022/03/15 07:58:14;;;;;;;;;;;;;;;;;;6129424;23;19920;-87
2022/03/15 08:00:41;;;;;;;;;;;;;;;;;;6183293;23;19955;-87
2022/03/15 08:03:08;;;;;;;;;;;;;;;;;;6216086;23;19926;-87
2022/03/15 08:05:35;;;;;;;;;;;;;;;;;;6191700;23;19915;-87
2022/03/15 08:08:03;;;;;;;;;;;;;;;;;;6216101;23;19994;-87
2022/03/15 08:10:30;;;;;;;;;;;;;;;;;;6191026;23;19920;-87
2022/03/15 08:12:58;;;;;;;;;;;;;;;;;;6215510;23;20382;-87
2022/03/15 08:15:25;;;;;;;;;;;;;;;;;;6238929;22;19927;-87
2022/03/15 08:17:52;;;;;;;;;;;;;;;;;;6246732;22;19919;-87
2022/03/15 08:20:20;;;;;;;;;;;;;;;;;;6221670;22;20006;-87
2022/03/15 08:22:47;;;;;;;;;;;;;;;;;;6221185;22;19919;-87
2022/03/15 08:25:14;;;;;;;;;;;;;;;;;;6219429;22;20221;-87
2022/03/15 08:27:41;;;;;;;;;;;;;;;;;;6220638;22;19919;-87
2022/03/15 08:30:09;;;;;;;;;;;;;;;;;;6220589;22;19915;-87
2022/03/15 08:32:36;;;;;;;;;;;;;;;;;;6246434;22;19923;-87
2022/03/15 08:35:03;;;;;;;;;;;;;;;;;;6221171;22;19916;-87
2022/03/15 08:37:30;;;;;;;;;;;;;;;;;;6221416;22;20671;-87
2022/03/15 08:39:58;;;;;;;;;;;;;;;;;;6245539;22;19923;-87
2022/03/15 08:42:26;;;;;;;;;;;;;;;;;;6220871;22;19915;-86
2022/03/15 08:44:54;;;;;;;;;;;;;;;;;;6246549;22;19946;-86
2022/03/15 08:47:21;;;;;;;;;;;;;;;;;;6273072;22;19919;-86
2022/03/15 08:49:47;;;;;;;;;;;;;;;;;;6245711;22;19950;-87
2022/03/15 08:52:15;;;;;;;;;;;;;;;;;;6245490;22;19915;-87
2022/03/15 08:54:42;;;;;;;;;;;;;;;;;;6245496;22;19919;-87
2022/03/15 08:57:09;;;;;;;;;;;;;;;;;;6245130;22;19935;-87
2022/03/15 08:59:36;;;;;;;;;;;;;;;;;;6220178;22;20268;-87
2022/03/15 09:02:03;;;;;;;;;;;;;;;;;;6244672;22;19919;-87
2022/03/15 09:04:31;;;;;;;;;;;;;;;;;;6245534;22;19915;-87
2022/03/15 09:06:58;;;;;;;;;;;;;;;;;;6245010;22;19922;-87
2022/03/15 09:09:39;;;;;;;;;;;;;;;;;;6187100;23;19998;-87
2022/03/15 09:12:06;;;;;;;;;;;;;;;;;;6182931;23;19959;-87
2022/03/15 09:14:33;;;;;;;;;;;;;;;;;;6207603;23;19991;-87
2022/03/15 09:17:00;;;;;;;;;;;;;;;;;;6173487;23;19926;-87
2022/03/15 09:19:28;;;;;;;;;;;;;;;;;;6209497;23;19950;-87
2022/03/15 09:21:56;;;;;;;;;;;;;;;;;;6209377;23;19920;-88
2022/03/15 09:24:23;;;;;;;;;;;;;;;;;;6210523;23;20268;-87
2022/03/15 09:26:50;;;;;;;;;;;;;;;;;;6211331;23;19916;-87
2022/03/15 09:29:16;;;;;;;;;;;;;;;;;;6185827;23;20144;-87
2022/03/15 09:31:44;;;;;;;;;;;;;;;;;;6186242;23;19920;-87
2022/03/15 09:34:12;;;;;;;;;;;;;;;;;;6210884;23;19923;-87
2022/03/15 09:36:39;;;;;;;;;;;;;;;;;;6211617;23;19915;-87
2022/03/15 09:39:07;;;;;;;;;;;;;;;;;;6185698;23;19920;-87
2022/03/15 09:41:35;;;;;;;;;;;;;;;;;;6235438;23;20002;-87
2022/03/15 09:44:22;;;;;;;;;;;;;;;;;;6155388;23;19917;-87
2022/03/15 09:46:50;;;;;;;;;;;;;;;;;;6156350;23;19927;-87
2022/03/15 09:49:18;;;;;;;;;;;;;;;;;;6155478;23;19920;-87
2022/03/15 09:51:49;;;;;;;;;;;;;;;;;;6155870;23;19920;-87
2022/03/15 09:54:17;;;;;;;;;;;;;;;;;;6155360;23;19927;-87
2022/03/15 09:56:46;;;;;;;;;;;;;;;;;;6092441;23;19918;-87
2022/03/15 09:59:14;;;;;;;;;;;;;;;;;;6068064;23;19924;-87
2022/03/15 10:01:42;;;;;;;;;;;;;;;;;;6068211;23;19933;-88
2022/03/15 10:04:09;;;;;;;;;;;;;;;;;;6092132;23;19941;-87
2022/03/15 10:06:36;;;;;;;;;;;;;;;;;;6068022;23;19932;-87
2022/03/15 10:09:03;;;;;;;;;;;;;;;;;;6092020;23;19928;-87
2022/03/15 10:11:31;;;;;;;;;;;;;;;;;;6068413;23;20394;-87
2022/03/15 10:13:59;;;;;;;;;;;;;;;;;;6068436;23;19921;-87
2022/03/15 10:16:27;;;;;;;;;;;;;;;;;;6121030;23;19925;-87
2022/03/15 10:18:56;;;;;;;;;;;;;;;;;;6121781;23;19929;-87
2022/03/15 10:21:26;;;;;;;;;;;;;;;;;;6120526;23;19925;-87
2022/03/15 10:23:55;;;;;;;;;;;;;;;;;;6121172;23;20326;-87
2022/03/15 10:26:24;;;;;;;;;;;;;;;;;;6095685;23;19921;-88
2022/03/15 10:28:53;;;;;;;;;;;;;;;;;;6204263;23;19919;-87
2022/03/15 10:31:20;;;;;;;;;;;;;;;;;;6216803;23;19915;-87
2022/03/15 10:33:48;;;;;;;;;;;;;;;;;;6191929;23;19919;-87
2022/03/15 10:36:15;;;;;;;;;;;;;;;;;;6217268;23;19937;-87
2022/03/15 10:38:42;;;;;;;;;;;;;;;;;;6216620;23;19986;-87
2022/03/15 10:41:09;;;;;;;;;;;;;;;;;;6216339;23;19931;-87
2022/03/15 10:43:37;;;;;;;;;;;;;;;;;;6191604;23;19920;-87
2022/03/15 10:46:05;;;;;;;;;;;;;;;;;;6216760;23;20002;-87
2022/03/15 10:48:31;;;;;;;;;;;;;;;;;;6191113;23;20235;-86
2022/03/15 10:51:17;;;;;;;;;;;;;;;;;;6180345;23;19928;-87
2022/03/15 10:54:00;;;;;;;;;;;;;;;;;;6091568;23;19920;-88
2022/03/15 10:56:28;;;;;;;;;;;;;;;;;;6067720;23;19925;-87
2022/03/15 10:59:04;;;;;;;;;;;;;;;;;;6044067;23;20468;-88
2022/03/15 11:01:31;;;;;;;;;;;;;;;;;;6067905;23;20331;-87
2022/03/15 11:03:58;;;;;;;;;;;;;;;;;;6066978;23;19972;-87
2022/03/15 11:06:44;;;;;;;;;;;;;;;;;;6091609;23;19928;-87
2022/03/15 11:09:11;;;;;;;;;;;;;;;;;;6067398;23;20042;-87
2022/03/15 11:11:39;;;;;;;;;;;;;;;;;;6043518;23;20029;-87
2022/03/15 11:14:07;;;;;;;;;;;;;;;;;;6064973;23;19921;-88
2022/03/15 11:16:34;;;;;;;;;;;;;;;;;;6043734;23;20008;-87
2022/03/15 11:19:01;;;;;;;;;;;;;;;;;;6067151;23;19917;-87
2022/03/15 11:21:28;;;;;;;;;;;;;;;;;;6077256;23;20315;-88
2022/03/15 11:23:55;;;;;;;;;;;;;;;;;;6130939;23;19921;-87
2022/03/15 11:26:23;;;;;;;;;;;;;;;;;;6241318;23;19962;-88
2022/03/15 11:29:05;;;;;;;;;;;;;;;;;;6178962;23;19920;-87
2022/03/15 11:31:32;;;;;;;;;;;;;;;;;;6179431;23;20343;-87
2022/03/15 11:34:01;;;;;;;;;;;;;;;;;;6154215;23;19916;-87
2022/03/15 11:36:27;;;;;;;;;;;;;;;;;;6179759;23;19995;-87
2022/03/15 11:38:55;;;;;;;;;;;;;;;;;;6154615;23;19967;-88
2022/03/15 11:41:22;;;;;;;;;;;;;;;;;;6179774;23;20349;-87
2022/03/15 11:43:53;;;;;;;;;;;;;;;;;;6154041;23;19920;-87
2022/03/15 11:46:21;;;;;;;;;;;;;;;;;;6153558;23;20687;-87
2022/03/15 11:48:52;;;;;;;;;;;;;;;;;;6179283;23;19920;-88
2022/03/15 11:51:19;;;;;;;;;;;;;;;;;;6125801;23;19920;-88
2022/03/15 11:53:50;;;;;;;;;;;;;;;;;;6129521;23;19931;-88
2022/03/15 11:56:17;;;;;;;;;;;;;;;;;;6153796;23;19921;-88
2022/03/15 11:58:44;;;;;;;;;;;;;;;;;;6129987;23;19924;-88
2022/03/15 12:01:20;;;;;;;;;;;;;;;;;;6240062;23;20002;-87
2022/03/15 12:03:48;;;;;;;;;;;;;;;;;;6216265;23;19916;-88
2022/03/15 12:06:15;;;;;;;;;;;;;;;;;;6240119;23;19921;-88
2022/03/15 12:08:56;;;;;;;;;;;;;;;;;;6189198;23;20317;-88
2022/03/15 12:11:23;;;;;;;;;;;;;;;;;;6208890;23;19920;-87
2022/03/15 12:13:50;;;;;;;;;;;;;;;;;;6211961;23;19965;-88
2022/03/15 12:16:21;;;;;;;;;;;;;;;;;;6235387;22;19923;-88
2022/03/15 12:18:51;;;;;;;;;;;;;;;;;;6240692;22;19919;-88
2022/03/15 12:21:18;;;;;;;;;;;;;;;;;;6241965;22;19923;-88
2022/03/15 12:23:46;;;;;;;;;;;;;;;;;;6241828;22;19923;-88
2022/03/15 12:26:13;;;;;;;;;;;;;;;;;;6243176;22;20290;-88
2022/03/15 12:28:40;;;;;;;;;;;;;;;;;;6241882;22;19930;-88
2022/03/15 12:31:06;;;;;;;;;;;;;;;;;;6242413;22;19919;-87
2022/03/15 12:33:34;;;;;;;;;;;;;;;;;;6218421;22;19954;-88
2022/03/15 12:36:00;;;;;;;;;;;;;;;;;;6240673;22;19986;-88
2022/03/15 12:38:28;;;;;;;;;;;;;;;;;;6239433;22;20260;-88
2022/03/15 12:40:55;;;;;;;;;;;;;;;;;;6242740;22;19927;-88
2022/03/15 12:43:22;;;;;;;;;;;;;;;;;;6241270;22;19919;-87
2022/03/15 12:45:48;;;;;;;;;;;;;;;;;;6241583;22;19951;-87
2022/03/15 12:48:15;;;;;;;;;;;;;;;;;;6241379;22;19919;-87
2022/03/15 12:50:42;;;;;;;;;;;;;;;;;;6266344;22;19954;-87
2022/03/15 12:53:12;;;;;;;;;;;;;;;;;;6242674;22;19919;-88
2022/03/15 12:55:43;;;;;;;;;;;;;;;;;;6243956;22;19982;-88
2022/03/15 12:58:10;;;;;;;;;;;;;;;;;;6243405;22;19922;-88
2022/03/15 13:00:38;;;;;;;;;;;;;;;;;;6240780;22;20325;-88
2022/03/15 13:03:06;;;;;;;;;;;;;;;;;;6241500;22;19919;-88
2022/03/15 13:05:51;;;;;;;;;;;;;;;;;;6174768;23;20345;-88
2022/03/15 13:08:21;;;;;;;;;;;;;;;;;;6174582;23;19916;-88
2022/03/15 13:10:49;;;;;;;;;;;;;;;;;;6149612;23;19990;-88
2022/03/15 13:13:18;;;;;;;;;;;;;;;;;;6174646;23;19963;-88
2022/03/15 13:15:56;;;;;;;;;;;;;;;;;;6150705;23;19927;-88
2022/03/15 13:18:36;;;;;;;;;;;;;;;;;;6176695;23;19924;-88
2022/03/15 13:21:12;;;;;;;;;;;;;;;;;;6151967;23;19920;-88
2022/03/15 13:23:41;;;;;;;;;;;;;;;;;;6176878;23;19924;-88
2022/03/15 13:26:12;;;;;;;;;;;;;;;;;;6151495;23;19916;-88
2022/03/15 13:28:40;;;;;;;;;;;;;;;;;;6151989;23;19920;-87
2022/03/15 13:31:09;;;;;;;;;;;;;;;;;;6177706;23;20284;-88
2022/03/15 13:34:08;;;;;;;;;;;;;;;;;;6176851;23;19963;-88
2022/03/15 13:36:35;;;;;;;;;;;;;;;;;;6150002;23;19970;-88
2022/03/15 13:39:05;;;;;;;;;;;;;;;;;;6177224;23;19921;-88
2022/03/15 13:41:41;;;;;;;;;;;;;;;;;;6151791;23;19924;-88
2022/03/15 13:44:15;;;;;;;;;;;;;;;;;;6233471;22;19973;-88
2022/03/15 13:46:42;;;;;;;;;;;;;;;;;;6219033;22;19915;-88
2022/03/15 13:49:10;;;;;;;;;;;;;;;;;;6217767;22;19925;-89
2022/03/15 13:51:40;;;;;;;;;;;;;;;;;;6270172;22;19993;-88
2022/03/15 13:54:08;;;;;;;;;;;;;;;;;;6243055;22;19961;-88
2022/03/15 13:56:36;;;;;;;;;;;;;;;;;;6218935;22;19919;-88
2022/03/15 13:59:02;;;;;;;;;;;;;;;;;;6244618;22;19919;-88
2022/03/15 14:01:43;;;;;;;;;;;;;;;;;;6176765;23;20270;-88
2022/03/15 14:04:10;;;;;;;;;;;;;;;;;;6124953;23;19920;-88
2022/03/15 14:06:39;;;;;;;;;;;;;;;;;;6152491;23;19983;-88
2022/03/15 14:09:08;;;;;;;;;;;;;;;;;;6152214;23;20373;-88
2022/03/15 14:11:47;;;;;;;;;;;;;;;;;;6151981;23;19920;-88
2022/03/15 14:14:13;;;;;;;;;;;;;;;;;;6126701;23;20288;-88
2022/03/15 14:16:41;;;;;;;;;;;;;;;;;;6151091;23;19920;-88
2022/03/15 14:19:09;;;;;;;;;;;;;;;;;;6152863;23;19932;-88
2022/03/15 14:21:40;;;;;;;;;;;;;;;;;;6152675;23;19924;-89
2022/03/15 14:24:08;;;;;;;;;;;;;;;;;;6152760;23;19917;-88
2022/03/15 14:26:49;;;;;;;;;;;;;;;;;;6117649;23;19968;-89
2022/03/15 14:29:31;;;;;;;;;;;;;;;;;;6088956;23;20306;-89
2022/03/15 14:31:59;;;;;;;;;;;;;;;;;;6076512;23;19963;-88
2022/03/15 14:34:26;;;;;;;;;;;;;;;;;;6096760;23;19956;-89
2022/03/15 14:36:54;;;;;;;;;;;;;;;;;;6099503;23;19934;-89
2022/03/15 14:39:22;;;;;;;;;;;;;;;;;;6123916;23;19948;-89
2022/03/15 14:41:51;;;;;;;;;;;;;;;;;;6097749;23;20069;-88
2022/03/15 14:44:35;;;;;;;;;;;;;;;;;;6125298;23;19923;-89
2022/03/15 14:47:03;;;;;;;;;;;;;;;;;;6122326;23;19947;-88
2022/03/15 14:49:33;;;;;;;;;;;;;;;;;;6098440;23;19916;-88
2022/03/15 14:52:00;;;;;;;;;;;;;;;;;;6098156;23;20023;-88
2022/03/15 14:54:28;;;;;;;;;;;;;;;;;;6123018;23;19991;-88
2022/03/15 14:56:58;;;;;;;;;;;;;;;;;;6098853;23;19955;-89
2022/03/15 14:59:24;;;;;;;;;;;;;;;;;;6095353;23;19921;-88
2022/03/15 15:02:11;;;;;;;;;;;;;;;;;;6154155;23;19966;-88
2022/03/15 15:04:40;;;;;;;;;;;;;;;;;;6176130;23;20494;-89
2022/03/15 15:07:12;;;;;;;;;;;;;;;;;;6126566;23;20337;-88
2022/03/15 15:09:39;;;;;;;;;;;;;;;;;;6152965;23;19920;-88
2022/03/15 15:12:25;;;;;;;;;;;;;;;;;;6117395;23;20305;-88
2022/03/15 15:14:53;;;;;;;;;;;;;;;;;;6097482;23;19959;-89
2022/03/15 15:17:22;;;;;;;;;;;;;;;;;;6121645;23;20011;-89
2022/03/15 15:20:05;;;;;;;;;;;;;;;;;;6125653;23;19917;-89
2022/03/15 15:22:32;;;;;;;;;;;;;;;;;;6121086;23;19927;-89
2022/03/15 15:24:59;;;;;;;;;;;;;;;;;;6096271;23;19917;-89
2022/03/15 15:27:29;;;;;;;;;;;;;;;;;;6097745;23;19968;-88
2022/03/15 15:30:06;;;;;;;;;;;;;;;;;;6121939;23;20005;-88
2022/03/15 15:32:52;;;;;;;;;;;;;;;;;;6091205;23;19921;-89
2022/03/15 15:35:22;;;;;;;;;;;;;;;;;;6092978;23;19917;-88
2022/03/15 15:37:58;;;;;;;;;;;;;;;;;;6093460;23;19964;-88
2022/03/15 15:40:51;;;;;;;;;;;;;;;;;;6119140;23;20487;-88
2022/03/15 15:43:25;;;;;;;;;;;;;;;;;;6094683;23;19983;-88
2022/03/15 15:46:01;;;;;;;;;;;;;;;;;;6116524;23;19972;-89
2022/03/15 15:48:28;;;;;;;;;;;;;;;;;;6069595;23;19960;-88
2022/03/15 15:50:54;;;;;;;;;;;;;;;;;;6091333;23;20005;-89
2022/03/15 15:53:23;;;;;;;;;;;;;;;;;;6069718;23;20335;-89
2022/03/15 15:56:09;;;;;;;;;;;;;;;;;;6119491;23;19921;-88
2022/03/15 15:58:55;;;;;;;;;;;;;;;;;;6038010;23;20056;-89
2022/03/15 16:01:25;;;;;;;;;;;;;;;;;;6010346;23;19961;-89
2022/03/15 16:03:54;;;;;;;;;;;;;;;;;;6090032;23;19963;-88
2022/03/15 16:06:21;;;;;;;;;;;;;;;;;;6093991;23;19935;-89
2022/03/15 16:08:52;;;;;;;;;;;;;;;;;;6118047;23;19923;-89
2022/03/15 16:11:19;;;;;;;;;;;;;;;;;;6090406;23;19936;-89
2022/03/15 16:13:46;;;;;;;;;;;;;;;;;;6090868;23;20414;-88
2022/03/15 16:16:13;;;;;;;;;;;;;;;;;;6091576;23;19956;-88
2022/03/15 16:18:42;;;;;;;;;;;;;;;;;;6091543;23;20016;-88
2022/03/15 16:21:10;;;;;;;;;;;;;;;;;;6092299;23;19924;-89
2022/03/15 16:23:37;;;;;;;;;;;;;;;;;;6110913;23;19920;-88
2022/03/15 16:26:05;;;;;;;;;;;;;;;;;;6121375;23;19956;-88
2022/03/15 16:28:35;;;;;;;;;;;;;;;;;;6120761;23;19916;-88
2022/03/15 16:31:03;;;;;;;;;;;;;;;;;;6122846;23;19952;-88
2022/03/15 16:33:30;;;;;;;;;;;;;;;;;;6097573;23;19917;-88
2022/03/15 16:35:56;;;;;;;;;;;;;;;;;;6095169;23;19956;-88
2022/03/15 16:38:24;;;;;;;;;;;;;;;;;;6121519;23;19920;-89
2022/03/15 16:40:50;;;;;;;;;;;;;;;;;;6121078;23;19968;-89
2022/03/15 16:43:24;;;;;;;;;;;;;;;;;;6121875;23;19955;-87
2022/03/15 16:45:51;;;;;;;;;;;;;;;;;;6098107;23;19924;-89
2022/03/15 16:48:19;;;;;;;;;;;;;;;;;;6135532;23;20484;-89
2022/03/15 16:50:46;;;;;;;;;;;;;;;;;;6212803;23;19927;-88
2022/03/15 16:53:13;;;;;;;;;;;;;;;;;;6211801;23;19927;-89
2022/03/15 16:56:01;;;;;;;;;;;;;;;;;;6215997;23;19950;-88
2022/03/15 17:01:16;;;;;;;;;;;;;;;;;;6213670;23;19978;-89
2022/03/15 17:06:31;;;;;;;;;;;;;;;;;;6213234;23;19965;-88
2022/03/15 17:09:00;;;;;;;;;;;;;;;;;;6186241;23;20279;-88
2022/03/15 17:11:28;;;;;;;;;;;;;;;;;;6213318;23;19919;-88
2022/03/15 17:14:05;;;;;;;;;;;;;;;;;;6236079;23;19919;-88